Terminal Aerodrome Forecast
Issued by NWS

Home | Current Version | Previous Version | Text Only | Print | Product List | Glossary Off
Versions: 1 2 3 4 5 6 7 8 9 10 11 12 13 14 15 16 17 18 19 20

000
FTUS43 KABR 240500
TAFATY
TAF
KATY 240528Z 2406/2506 28008KT P6SM SCT250
     FM242200 32008KT 6SM -RA OVC020
     FM250200 34014G20KT 2SM -SN OVC008=

USA.gov is the U.S. government's official web portal to all federal, state and local government web resources and services.